• Join FlightAware (Why Join?)
  • Login
  • US Flag 
01:27PM EDT


 

Airport Tracker/Info


-or-


 

Live Flight TrackerFlight Track Log ✈ CES2279 ✈ 22-Sep-2013 ✈ ZLXN / XNN - ZLGM / GOQ

Flight Track Log - Related Links

Times and Time Zones

All times are in EDT time to prevent confusion due to time zone crossing. See the CES2279 flight status page for this flight to view local times or setup timezone preferences in your user account.

Time Position Orientation Groundspeed Altitude Reporting Facility
EDT Latitude Longitude Course Direction KTS MPH feet Rate Location/Type
06:01AM 36.5101 97.9681 271° West  Level Estimated
06:02AM 36.5077 97.8581 268° West  Level Estimated
06:03AM 36.5052 97.7480 268° West  Level Estimated
06:04AM 36.5026 97.6379 268° West  Level Estimated
06:05AM 36.4999 97.5279 268° West  Level Estimated
06:06AM 36.4971 97.4179 268° West  Level Estimated
06:07AM 36.4942 97.3078 268° West  Level Estimated
06:08AM 36.4912 97.1978 268° West  Level Estimated
06:09AM 36.4881 97.0878 268° West  Level Estimated
06:10AM 36.4849 96.9778 268° West  Level Estimated
06:11AM 36.4816 96.8678 268° West  Level Estimated
06:12AM 36.4782 96.7578 268° West  Level Estimated
06:13AM 36.4747 96.6479 268° West  Level Estimated
06:14AM 36.4711 96.5379 268° West  Level Estimated
06:15AM 36.4674 96.4280 268° West  Level Estimated
06:16AM 36.4636 96.3180 268° West  Level Estimated
06:17AM 36.4597 96.2081 268° West  Level Estimated
06:18AM 36.4557 96.0982 267° West  Level Estimated
06:19AM 36.4515 95.9883 267° West  Level Estimated
06:20AM 36.4473 95.8784 267° West  Level Estimated
06:21AM 36.4430 95.7685 267° West  Level Estimated
06:22AM 36.4386 95.6586 267° West  Level Estimated
06:23AM 36.4341 95.5488 267° West  Level Estimated
06:24AM 36.4295 95.4389 267° West  Level Estimated
06:25AM 36.4248 95.3291 267° West  Level Estimated
06:26AM 36.4200 95.2193 267° West  Level Estimated
06:27AM 36.4151 95.1094 267° West  Level Estimated
06:28AM 36.4100 94.9996 267° West  Level Estimated
06:29AM 36.4049 94.8899 267° West  Level Estimated
06:30AM 36.4000 94.7861 267° West  Level Estimated
06:31AM 36.4000 94.7861 90° East  Level Estimated
06:32AM 36.4000 94.7861 90° East  Level Estimated
06:33AM 36.4000 94.7861 90° East  Level Estimated
06:34AM 36.4000 94.7861 90° East  Level Estimated
06:35AM 36.4000 94.7861 90° East  Level Estimated
06:36AM 36.4000 94.7861 90° East  Level Estimated